Terminal Aerodrome Forecast
Issued by NWS Binghamton, NY

Home | Current Version | Previous Version | Text Only | Print | Product List | Glossary On
Versions: 1 2 3 4 5 6 7 8 9 10 11 12 13 14 15 16 17 18 19 20
897
FTUS41 KBGM 242009 AAA
TAFAVP
TAF AMD
KAVP 242009Z 2420/2518 34013KT P6SM SCT250
     FM250100 30005KT P6SM FEW250=

USA.gov is the U.S. government's official web portal to all federal, state and local government web resources and services.